createdAt,value
2022-09-14T00:01:26.867Z,100384.34
2022-09-14T00:03:57.339Z,100378.34
2022-09-14T00:06:24.494Z,100387.91
2022-09-14T00:08:54.121Z,100383.53
2022-09-14T00:11:22.797Z,100378.34
2022-09-14T00:13:50.670Z,100380.81
2022-09-14T00:16:29.746Z,100376.44
2022-09-14T00:19:05.644Z,100372.91
2022-09-14T00:21:38.384Z,100370.78
2022-09-14T00:24:07.269Z,100359.56
2022-09-14T00:26:34.495Z,100370.84
2022-09-14T00:29:05.247Z,100363.13
2022-09-14T00:31:38.145Z,100355.84
2022-09-14T00:34:07.157Z,100359.22
2022-09-14T00:36:37.959Z,100359.41
2022-09-14T00:39:04.535Z,100349.81
2022-09-14T00:41:34.345Z,100349.22
2022-09-14T00:44:06.733Z,100345.50
2022-09-14T00:47:01.272Z,100347.38
2022-09-14T00:49:34.302Z,100344.19
2022-09-14T00:52:10.016Z,100345.03
2022-09-14T00:54:43.746Z,100341.69
2022-09-14T00:57:10.513Z,100338.38
2022-09-14T00:59:39.159Z,100339.41
2022-09-14T01:02:09.327Z,100336.69
2022-09-14T01:04:36.721Z,100331.09
2022-09-14T01:07:09.018Z,100336.50
2022-09-14T01:10:17.501Z,100341.28
2022-09-14T01:12:46.694Z,100337.75
2022-09-14T01:15:22.116Z,100340.44
2022-09-14T01:18:00.758Z,100331.09
2022-09-14T01:20:36.405Z,100330.06
2022-09-14T01:23:26.273Z,100332.13
2022-09-14T01:26:09.660Z,100327.34
2022-09-14T01:28:56.385Z,100329.63
2022-09-14T01:31:29.107Z,100324.63
2022-09-14T01:34:07.869Z,100325.00
2022-09-14T01:36:36.720Z,100315.88
2022-09-14T01:39:03.919Z,100326.69
2022-09-14T01:41:31.948Z,100327.91
2022-09-14T01:44:08.808Z,100326.03
2022-09-14T01:46:53.271Z,100330.25
2022-09-14T01:49:38.243Z,100328.38
2022-09-14T01:52:13.365Z,100326.03
2022-09-14T01:54:49.045Z,100335.59
2022-09-14T01:57:19.477Z,100329.56
2022-09-14T01:59:49.326Z,100329.34
2022-09-14T02:02:18.827Z,100332.88
2022-09-14T02:05:10.010Z,100331.63
2022-09-14T02:07:37.884Z,100328.13
2022-09-14T02:10:06.852Z,100318.53
2022-09-14T02:12:33.490Z,100317.31
2022-09-14T02:15:00.177Z,100320.81
2022-09-14T02:17:27.587Z,100317.47
2022-09-14T02:19:57.554Z,100311.81
2022-09-14T02:22:27.374Z,100304.34
2022-09-14T02:24:54.731Z,100303.09
2022-09-14T02:27:22.237Z,100303.31
2022-09-14T02:29:49.308Z,100297.91
2022-09-14T02:32:40.918Z,100301.44
2022-09-14T02:35:20.607Z,100298.22
2022-09-14T02:38:28.041Z,100295.91
2022-09-14T02:41:03.222Z,100297.56
2022-09-14T02:43:55.910Z,100300.53
2022-09-14T02:46:30.006Z,100308.06
2022-09-14T02:49:22.753Z,100305.09
2022-09-14T02:52:21.288Z,100298.22
2022-09-14T02:54:59.106Z,100304.47
2022-09-14T02:57:25.954Z,100300.47
2022-09-14T02:59:55.439Z,100301.78
2022-09-14T03:02:22.477Z,100295.97
2022-09-14T03:04:49.135Z,100304.28
2022-09-14T03:07:15.911Z,100299.06
2022-09-14T03:09:42.510Z,100299.44
2022-09-14T03:12:09.113Z,100300.75
2022-09-14T03:14:35.708Z,100298.59
2022-09-14T03:17:02.310Z,100290.25
2022-09-14T03:19:28.894Z,100297.78
2022-09-14T03:21:55.475Z,100300.66
2022-09-14T03:24:22.174Z,100294.19
2022-09-14T03:26:52.164Z,100301.84
2022-09-14T03:29:18.767Z,100290.59
2022-09-14T03:31:45.467Z,100288.28
2022-09-14T03:34:12.134Z,100290.22
2022-09-14T03:36:38.697Z,100279.84
2022-09-14T03:39:05.272Z,100281.94
2022-09-14T03:41:32.030Z,100281.13
2022-09-14T03:43:58.628Z,100281.53
2022-09-14T03:46:25.749Z,100275.91
2022-09-14T03:48:54.826Z,100282.34
2022-09-14T03:51:21.698Z,100280.00
2022-09-14T03:53:48.428Z,100284.56
2022-09-14T03:56:20.143Z,100276.88
2022-09-14T03:58:48.125Z,100281.91
2022-09-14T04:01:19.473Z,100282.16
2022-09-14T04:03:46.835Z,100281.91
2022-09-14T04:06:14.326Z,100277.34
2022-09-14T04:08:42.265Z,100279.44
2022-09-14T04:11:17.719Z,100275.50
2022-09-14T04:13:45.179Z,100280.47
2022-09-14T04:16:12.520Z,100281.31
2022-09-14T04:18:39.151Z,100290.44
2022-09-14T04:21:13.812Z,100291.47
2022-09-14T04:24:02.980Z,100289.19
2022-09-14T04:26:28.839Z,100287.69
2022-09-14T04:28:56.875Z,100277.69
2022-09-14T04:31:24.576Z,100278.94
2022-09-14T04:33:56.348Z,100274.59
2022-09-14T04:36:28.281Z,100275.00
2022-09-14T04:38:57.600Z,100266.50
2022-09-14T04:41:24.757Z,100276.53
2022-09-14T04:43:53.049Z,100278.13
2022-09-14T04:46:25.113Z,100281.84
2022-09-14T04:48:51.803Z,100278.31
2022-09-14T04:51:24.238Z,100274.59
2022-09-14T04:53:52.801Z,100274.78
2022-09-14T04:56:24.166Z,100273.13
2022-09-14T04:58:53.766Z,100268.97
2022-09-14T05:01:28.972Z,100269.00
2022-09-14T05:03:56.310Z,100260.47
2022-09-14T05:06:28.758Z,100246.13
2022-09-14T05:08:56.307Z,100246.13
2022-09-14T05:11:25.910Z,100246.34
2022-09-14T05:13:52.614Z,100250.69
2022-09-14T05:16:22.480Z,100245.03
2022-09-14T05:18:50.590Z,100258.16
2022-09-14T05:21:20.032Z,100259.69
2022-09-14T05:23:47.321Z,100251.75
2022-09-14T05:26:14.693Z,100254.88
2022-09-14T05:28:41.631Z,100255.69
2022-09-14T05:31:10.979Z,100262.13
2022-09-14T05:33:37.663Z,100265.72
2022-09-14T05:36:06.696Z,100260.75
2022-09-14T05:38:34.800Z,100262.25
2022-09-14T05:41:02.026Z,100259.44
2022-09-14T05:43:29.745Z,100258.25
2022-09-14T05:45:56.524Z,100260.25
2022-09-14T05:48:23.180Z,100252.78
2022-09-14T05:50:49.739Z,100251.50
2022-09-14T05:53:16.319Z,100263.34
2022-09-14T05:55:42.963Z,100257.16
2022-09-14T05:58:10.750Z,100252.00
2022-09-14T06:00:38.277Z,100252.28
2022-09-14T06:03:06.676Z,100242.38
2022-09-14T06:05:34.164Z,100242.63
2022-09-14T06:08:00.749Z,100241.56
2022-09-14T06:10:27.375Z,100245.94
2022-09-14T06:12:55.559Z,100234.50
2022-09-14T06:15:24.658Z,100244.50
2022-09-14T06:17:51.405Z,100242.19
2022-09-14T06:20:18.919Z,100244.28
2022-09-14T06:22:45.626Z,100254.03
2022-09-14T06:25:12.217Z,100247.59
2022-09-14T06:27:38.798Z,100241.34
2022-09-14T06:30:05.961Z,100244.19
2022-09-14T06:32:32.722Z,100238.16
2022-09-14T06:34:59.639Z,100235.63
2022-09-14T06:37:26.232Z,100231.22
2022-09-14T06:39:52.927Z,100241.16
2022-09-14T06:42:19.514Z,100236.75
2022-09-14T06:44:47.597Z,100231.75
2022-09-14T06:47:14.196Z,100236.53
2022-09-14T06:49:40.758Z,100231.13
2022-09-14T06:52:07.346Z,100235.25
2022-09-14T06:54:33.980Z,100234.63
2022-09-14T06:57:00.534Z,100240.84
2022-09-14T06:59:27.157Z,100243.56
2022-09-14T07:01:53.765Z,100238.75
2022-09-14T07:04:21.570Z,100248.34
2022-09-14T07:06:49.979Z,100240.69
2022-09-14T07:09:18.626Z,100245.47
2022-09-14T07:11:45.756Z,100249.84
2022-09-14T07:14:12.941Z,100249.25
2022-09-14T07:16:40.496Z,100255.28
2022-09-14T07:19:11.133Z,100255.50
2022-09-14T07:21:37.989Z,100243.66
2022-09-14T07:24:04.850Z,100248.44
2022-09-14T07:26:41.810Z,100249.47
2022-09-14T07:29:13.647Z,100241.13
2022-09-14T07:31:49.118Z,100248.19
2022-09-14T07:34:16.923Z,100249.00
2022-09-14T07:36:43.803Z,100245.28
2022-09-14T07:39:13.568Z,100245.47
2022-09-14T07:41:40.628Z,100248.44
2022-09-14T07:44:09.506Z,100244.28
2022-09-14T07:46:41.517Z,100250.09
2022-09-14T07:49:09.554Z,100236.38
2022-09-14T07:51:37.390Z,100234.53
2022-09-14T07:54:06.113Z,100243.69
2022-09-14T07:56:34.128Z,100245.78
2022-09-14T07:59:17.596Z,100244.31
2022-09-14T08:01:48.347Z,100247.44
2022-09-14T08:04:14.955Z,100247.84
2022-09-14T08:06:42.229Z,100254.50
2022-09-14T08:09:08.993Z,100249.53
2022-09-14T08:11:36.409Z,100243.28
2022-09-14T08:14:06.881Z,100245.78
2022-09-14T08:16:34.841Z,100247.06
2022-09-14T08:19:04.758Z,100248.13
2022-09-14T08:21:32.631Z,100251.25
2022-09-14T08:24:02.425Z,100250.88
2022-09-14T08:26:29.522Z,100246.72
2022-09-14T08:28:56.958Z,100253.81
2022-09-14T08:31:27.076Z,100250.91
2022-09-14T08:33:59.612Z,100243.41
2022-09-14T08:36:35.721Z,100252.78
2022-09-14T08:39:02.689Z,100245.31
2022-09-14T08:41:31.874Z,100248.03
2022-09-14T08:44:35.542Z,100239.09
2022-09-14T08:47:29.165Z,100248.84
2022-09-14T08:50:19.366Z,100234.69
2022-09-14T08:52:48.409Z,100237.59
2022-09-14T08:55:17.755Z,100243.78
2022-09-14T08:57:50.051Z,100247.78
2022-09-14T09:00:21.955Z,100249.53
2022-09-14T09:02:54.315Z,100243.94
2022-09-14T09:06:00.127Z,100250.59
2022-09-14T09:08:39.025Z,100238.09
2022-09-14T09:11:14.706Z,100234.72
2022-09-14T09:13:43.733Z,100223.06
2022-09-14T09:16:13.078Z,100214.09
2022-09-14T09:19:01.569Z,100217.03
2022-09-14T09:21:43.833Z,100216.22
2022-09-14T09:24:42.406Z,100221.47
2022-09-14T09:27:14.539Z,100219.31
2022-09-14T09:29:41.321Z,100219.03
2022-09-14T09:32:16.772Z,100219.38
2022-09-14T09:34:43.616Z,100207.31
2022-09-14T09:37:22.545Z,100210.25
2022-09-14T09:39:49.718Z,100203.59
2022-09-14T09:42:20.691Z,100205.09
2022-09-14T09:45:03.833Z,100208.59
2022-09-14T09:47:48.772Z,100196.72
2022-09-14T09:50:21.746Z,100207.09
2022-09-14T09:52:54.747Z,100206.50
2022-09-14T09:55:23.736Z,100199.56
2022-09-14T09:57:50.324Z,100203.97
2022-09-14T10:00:23.475Z,100196.53
2022-09-14T10:02:50.714Z,100194.28
2022-09-14T10:05:17.252Z,100194.88
2022-09-14T10:07:54.689Z,100191.16
2022-09-14T10:10:45.757Z,100190.63
2022-09-14T10:13:28.796Z,100184.88
2022-09-14T10:16:18.055Z,100188.75
2022-09-14T10:18:49.203Z,100185.41
2022-09-14T10:21:18.506Z,100170.25
2022-09-14T10:23:45.853Z,100188.94
2022-09-14T10:26:12.401Z,100184.44
2022-09-14T10:28:44.990Z,100187.00
2022-09-14T10:31:12.148Z,100191.16
2022-09-14T10:33:39.271Z,100187.41
2022-09-14T10:36:11.774Z,100193.19
2022-09-14T10:39:10.916Z,100192.75
2022-09-14T10:41:50.008Z,100184.47
2022-09-14T10:44:57.752Z,100178.47
2022-09-14T10:47:39.113Z,100182.44
2022-09-14T10:50:21.716Z,100170.78
2022-09-14T10:53:09.793Z,100178.53
2022-09-14T10:56:00.464Z,100172.88
2022-09-14T10:58:59.657Z,100170.63
2022-09-14T11:02:21.043Z,100164.59
2022-09-14T11:05:06.500Z,100160.59
2022-09-14T11:07:35.911Z,100169.59
2022-09-14T11:10:33.306Z,100166.69
2022-09-14T11:13:21.701Z,100169.16
2022-09-14T11:16:03.155Z,100166.25
2022-09-14T11:18:48.089Z,100179.13
2022-09-14T11:21:32.835Z,100178.47
2022-09-14T11:24:14.556Z,100167.16
2022-09-14T11:26:45.661Z,100176.56
2022-09-14T11:29:27.463Z,100167.75
2022-09-14T11:32:16.899Z,100168.09
2022-09-14T11:35:17.604Z,100170.00
2022-09-14T11:38:02.194Z,100173.38
2022-09-14T11:40:57.671Z,100183.63
2022-09-14T11:43:43.106Z,100181.03
2022-09-14T11:46:35.070Z,100167.25
2022-09-14T11:49:14.142Z,100160.75
2022-09-14T11:51:59.159Z,100159.25
2022-09-14T11:54:25.958Z,100160.81
2022-09-14T11:56:58.295Z,100173.03
2022-09-14T11:59:40.165Z,100170.59
2022-09-14T12:02:25.331Z,100159.75
2022-09-14T12:05:10.657Z,100161.00
2022-09-14T12:07:40.525Z,100150.88
2022-09-14T12:10:16.681Z,100157.69
2022-09-14T12:12:52.405Z,100161.13
2022-09-14T12:15:32.121Z,100157.69
2022-09-14T12:18:08.074Z,100167.22
2022-09-14T12:20:48.306Z,100161.22
2022-09-14T12:23:42.991Z,100152.09
2022-09-14T12:26:26.504Z,100151.94
2022-09-14T12:28:56.270Z,100153.13
2022-09-14T12:31:31.958Z,100146.47
2022-09-14T12:34:23.758Z,100150.50
2022-09-14T12:36:50.301Z,100145.59
2022-09-14T12:39:28.770Z,100137.78
2022-09-14T12:41:55.358Z,100138.50
2022-09-14T12:44:42.275Z,100134.34
2022-09-14T12:47:38.954Z,100126.94
2022-09-14T12:50:28.335Z,100130.84
2022-09-14T12:53:17.594Z,100128.34
2022-09-14T12:55:48.704Z,100134.00
2022-09-14T12:58:27.206Z,100138.75
2022-09-14T13:09:55.129Z,100111.31
2022-09-14T13:12:44.399Z,100101.41
2022-09-14T13:15:28.050Z,100083.19
2022-09-14T13:17:58.755Z,100088.53
2022-09-14T13:20:25.705Z,100083.75
2022-09-14T13:22:52.263Z,100079.97
2022-09-14T13:25:37.876Z,100070.56
2022-09-14T13:28:07.107Z,100067.84
2022-09-14T13:30:35.970Z,100066.91
2022-09-14T13:33:04.823Z,100064.28
2022-09-14T13:36:02.184Z,100076.72
2022-09-14T13:38:37.668Z,100072.25
2022-09-14T13:41:11.422Z,100072.25
2022-09-14T13:43:38.271Z,100067.75
2022-09-14T13:46:08.129Z,100060.13
2022-09-14T13:48:40.176Z,100061.81
2022-09-14T13:51:07.859Z,100059.19
2022-09-14T13:53:49.057Z,100063.78
2022-09-14T13:56:23.162Z,100061.75
2022-09-14T13:59:11.170Z,100056.66
2022-09-14T14:01:39.224Z,100051.00
2022-09-14T14:04:05.836Z,100049.56
2022-09-14T14:06:41.707Z,100053.75
2022-09-14T14:09:11.077Z,100048.53
2022-09-14T14:11:41.079Z,100046.25
2022-09-14T14:14:33.859Z,100033.69
2022-09-14T14:17:21.979Z,100037.06
2022-09-14T14:19:51.394Z,100039.38
2022-09-14T14:22:26.571Z,100033.56
2022-09-14T14:25:12.883Z,100033.81
2022-09-14T14:27:46.033Z,100031.34
2022-09-14T14:30:13.252Z,100030.53
2022-09-14T14:32:39.798Z,100033.50
2022-09-14T14:35:19.914Z,100024.53
2022-09-14T14:37:47.800Z,100025.22
2022-09-14T14:40:15.321Z,100032.34
2022-09-14T14:42:42.615Z,100034.66
2022-09-14T14:45:19.113Z,100031.97
2022-09-14T14:47:47.279Z,100031.97
2022-09-14T14:50:26.163Z,100030.75
2022-09-14T14:52:53.025Z,100029.50
2022-09-14T14:55:21.190Z,100026.38
2022-09-14T14:57:49.212Z,100031.56
2022-09-14T15:00:20.994Z,100027.41
2022-09-14T15:02:48.195Z,100023.09
2022-09-14T15:05:14.854Z,100021.06
2022-09-14T15:07:41.578Z,100023.84
2022-09-14T15:10:09.388Z,100027.00
2022-09-14T15:12:35.914Z,100016.72
2022-09-14T15:15:03.048Z,100015.25
2022-09-14T15:17:29.562Z,100014.19
2022-09-14T15:19:56.066Z,100013.47
2022-09-14T15:22:22.605Z,100008.38
2022-09-14T15:24:49.124Z,100003.28
2022-09-14T15:27:15.674Z,100002.00
2022-09-14T15:29:42.190Z,100006.72
2022-09-14T15:32:08.803Z,100000.69
2022-09-14T15:34:35.367Z,100008.41
2022-09-14T15:37:01.915Z,99992.16
2022-09-14T15:39:31.488Z,99995.50
2022-09-14T15:41:58.617Z,100002.97
2022-09-14T15:44:25.396Z,100001.75
2022-09-14T15:46:52.965Z,100003.00
2022-09-14T15:49:24.145Z,99997.16
2022-09-14T15:51:53.043Z,100001.09
2022-09-14T15:54:25.002Z,100003.41
2022-09-14T15:56:56.742Z,100010.50
2022-09-14T15:59:23.365Z,100004.63
2022-09-14T16:01:49.969Z,100010.63
2022-09-14T16:04:16.550Z,100002.31
2022-09-14T16:06:43.619Z,100003.94
2022-09-14T16:09:12.074Z,100009.56
2022-09-14T16:11:39.515Z,100003.53
2022-09-14T16:14:07.786Z,100007.94
2022-09-14T16:16:35.841Z,100001.75
2022-09-14T16:19:13.766Z,100010.31
2022-09-14T16:21:42.080Z,100004.03
2022-09-14T16:24:12.871Z,100004.81
2022-09-14T16:26:39.818Z,100002.53
2022-09-14T16:29:11.641Z,100005.41
2022-09-14T16:31:40.518Z,100007.78
2022-09-14T16:34:14.999Z,100001.88
2022-09-14T16:36:42.268Z,99998.09
2022-09-14T16:39:15.578Z,99997.66
2022-09-14T16:41:42.646Z,100003.31
2022-09-14T16:44:15.483Z,100008.94
2022-09-14T16:46:42.580Z,100007.31
2022-09-14T16:49:09.296Z,100006.91
2022-09-14T16:51:36.351Z,100008.97
2022-09-14T16:54:03.054Z,99996.53
2022-09-14T16:56:32.706Z,99990.72
2022-09-14T16:59:00.515Z,99986.78
2022-09-14T17:01:39.662Z,99975.53
2022-09-14T17:04:11.900Z,99973.72
2022-09-14T17:06:41.235Z,99979.09
2022-09-14T17:09:14.279Z,99980.94
2022-09-14T17:11:41.565Z,99982.59
2022-09-14T17:14:13.074Z,99980.72
2022-09-14T17:16:40.433Z,99978.47
2022-09-14T17:19:07.044Z,99981.25
2022-09-14T17:21:36.240Z,99980.84
2022-09-14T17:24:04.503Z,99982.72
2022-09-14T17:26:32.403Z,99980.84
2022-09-14T17:29:00.145Z,99976.72
2022-09-14T17:31:31.275Z,99976.09
2022-09-14T17:34:00.321Z,99979.19
2022-09-14T17:36:27.324Z,99982.34
2022-09-14T17:38:57.884Z,99973.78
2022-09-14T17:41:27.901Z,99971.34
2022-09-14T17:43:57.114Z,99968.25
2022-09-14T17:46:24.607Z,99968.06
2022-09-14T17:48:51.965Z,99969.91
2022-09-14T17:51:24.328Z,99977.63
2022-09-14T17:53:53.747Z,99972.81
2022-09-14T17:56:22.830Z,99970.53
2022-09-14T17:59:02.428Z,99961.78
2022-09-14T18:01:30.178Z,99968.47
2022-09-14T18:04:00.924Z,99968.88
2022-09-14T18:06:31.014Z,99967.44
2022-09-14T18:09:01.052Z,99964.91
2022-09-14T18:11:28.405Z,99964.72
2022-09-14T18:13:55.880Z,99955.38
2022-09-14T18:16:24.129Z,99952.66
2022-09-14T18:18:51.568Z,99949.13
2022-09-14T18:21:18.732Z,99949.34
2022-09-14T18:23:50.065Z,99952.66
2022-09-14T18:26:17.953Z,99952.66
2022-09-14T18:28:44.799Z,99951.63
2022-09-14T18:31:14.223Z,99947.06
2022-09-14T18:33:47.156Z,99946.25
2022-09-14T18:36:15.179Z,99941.66
2022-09-14T18:38:42.248Z,99934.13
2022-09-14T18:41:10.515Z,99940.19
2022-09-14T18:43:37.398Z,99929.78
2022-09-14T18:46:07.849Z,99933.94
2022-09-14T18:48:35.205Z,99936.66
2022-09-14T18:51:04.541Z,99936.88
2022-09-14T18:53:31.864Z,99945.19
2022-09-14T18:56:07.760Z,99945.16
2022-09-14T18:58:36.651Z,99941.44
2022-09-14T19:01:04.055Z,99941.88
2022-09-14T19:03:32.163Z,99942.06
2022-09-14T19:06:03.360Z,99940.84
2022-09-14T19:08:29.880Z,99930.84
2022-09-14T19:10:56.433Z,99927.31
2022-09-14T19:13:22.945Z,99922.97
2022-09-14T19:15:49.637Z,99919.25
2022-09-14T19:18:16.254Z,99926.50
2022-09-14T19:21:05.311Z,99925.69
2022-09-14T19:23:31.959Z,99930.25
2022-09-14T19:26:03.692Z,99932.31
2022-09-14T19:28:30.297Z,99936.69
2022-09-14T19:30:56.925Z,99931.91
2022-09-14T19:33:23.621Z,99941.06
2022-09-14T19:35:50.269Z,99936.88
2022-09-14T19:38:16.839Z,99939.19
2022-09-14T19:40:53.060Z,99934.00
2022-09-14T19:43:19.622Z,99935.66
2022-09-14T19:45:46.231Z,99930.25
2022-09-14T19:48:12.798Z,99939.78
2022-09-14T19:50:39.344Z,99941.66
2022-09-14T19:53:06.047Z,99933.78
2022-09-14T19:55:33.175Z,99940.03
2022-09-14T19:57:59.769Z,99939.81
2022-09-14T20:00:26.654Z,99933.16
2022-09-14T20:02:53.307Z,99935.44
2022-09-14T20:05:19.940Z,99933.16
2022-09-14T20:07:47.757Z,99937.09
2022-09-14T20:10:14.337Z,99944.38
2022-09-14T20:12:40.937Z,99949.56
2022-09-14T20:15:07.844Z,99939.41
2022-09-14T20:17:34.401Z,99937.94
2022-09-14T20:20:01.051Z,99940.84
2022-09-14T20:22:27.638Z,99942.28
2022-09-14T20:24:54.172Z,99939.38
2022-09-14T20:27:21.157Z,99945.41
2022-09-14T20:29:47.964Z,99934.81
2022-09-14T20:32:17.325Z,99936.88
2022-09-14T20:34:46.652Z,99937.53
2022-09-14T20:37:13.297Z,99939.56
2022-09-14T20:39:39.841Z,99937.72
2022-09-14T20:42:06.633Z,99933.97
2022-09-14T20:44:33.656Z,99938.97
2022-09-14T20:47:00.297Z,99942.06
2022-09-14T20:49:26.837Z,99944.78
2022-09-14T20:51:54.368Z,99953.09
2022-09-14T20:54:21.253Z,99956.63
2022-09-14T20:56:47.834Z,99942.50
2022-09-14T20:59:17.463Z,99944.75
2022-09-14T21:01:46.366Z,99947.25
2022-09-14T21:04:15.705Z,99938.31
2022-09-14T21:06:45.620Z,99952.06
2022-09-14T21:09:13.680Z,99948.94
2022-09-14T21:11:40.835Z,99942.28
2022-09-14T21:14:07.865Z,99933.97
2022-09-14T21:16:43.515Z,99947.47
2022-09-14T21:19:12.189Z,99956.00
2022-09-14T21:21:39.713Z,99953.69
2022-09-14T21:24:08.921Z,99962.44
2022-09-14T21:26:38.276Z,99953.53
2022-09-14T21:29:09.410Z,99946.44
2022-09-14T21:31:37.684Z,99946.84
2022-09-14T21:34:06.306Z,99944.38
2022-09-14T21:36:36.057Z,99942.50
2022-09-14T21:39:11.169Z,99944.78
2022-09-14T21:41:39.436Z,99945.41
2022-09-14T21:44:06.410Z,99940.41
2022-09-14T21:46:33.063Z,99952.91
2022-09-14T21:49:00.146Z,99952.47
2022-09-14T21:51:32.651Z,99944.38
2022-09-14T21:54:05.297Z,99938.56
2022-09-14T21:56:34.080Z,99945.22
2022-09-14T21:59:08.868Z,99936.47
2022-09-14T22:01:36.121Z,99935.03
2022-09-14T22:04:04.084Z,99926.91
2022-09-14T22:06:31.949Z,99932.97
2022-09-14T22:09:01.067Z,99938.75
2022-09-14T22:11:31.178Z,99928.56
2022-09-14T22:14:03.617Z,99931.91
2022-09-14T22:16:34.028Z,99930.44
2022-09-14T22:19:04.116Z,99918.81
2022-09-14T22:21:32.985Z,99918.81
2022-09-14T22:24:03.039Z,99926.91
2022-09-14T22:26:32.088Z,99930.25
2022-09-14T22:28:59.589Z,99924.66
2022-09-14T22:31:28.386Z,99926.09
2022-09-14T22:33:56.847Z,99924.00
2022-09-14T22:36:23.989Z,99921.72
2022-09-14T22:38:50.565Z,99922.78
2022-09-14T22:41:19.637Z,99917.59
2022-09-14T22:43:46.833Z,99917.75
2022-09-14T22:46:14.507Z,99913.84
2022-09-14T22:48:41.570Z,99910.69
2022-09-14T22:51:10.778Z,99914.88
2022-09-14T22:53:37.460Z,99916.53
2022-09-14T22:56:19.220Z,99924.44
2022-09-14T22:58:47.019Z,99920.91
2022-09-14T23:01:16.107Z,99938.78
2022-09-14T23:03:43.262Z,99931.28
2022-09-14T23:06:10.441Z,99933.56
2022-09-14T23:08:37.833Z,99930.44
2022-09-14T23:11:11.962Z,99927.34
2022-09-14T23:13:42.553Z,99929.19
2022-09-14T23:16:14.893Z,99930.44
2022-09-14T23:18:42.117Z,99919.44
2022-09-14T23:21:09.551Z,99916.94
2022-09-14T23:23:38.112Z,99920.91
2022-09-14T23:26:11.036Z,99923.59
2022-09-14T23:28:38.255Z,99927.31
2022-09-14T23:31:06.195Z,99925.06
2022-09-14T23:33:33.203Z,99924.44
2022-09-14T23:36:00.077Z,99923.81
2022-09-14T23:38:27.162Z,99927.75
2022-09-14T23:40:53.895Z,99914.66
2022-09-14T23:43:20.721Z,99911.97
2022-09-14T23:45:48.226Z,99913.84
2022-09-14T23:48:15.424Z,99916.09
2022-09-14T23:50:42.288Z,99915.69
2022-09-14T23:53:08.946Z,99918.19
2022-09-14T23:55:35.667Z,99922.13
2022-09-14T23:58:02.657Z,99920.25
